Terminal Aerodrome Forecast
Issued by NWS

Home | Current Version | Previous Version | Text Only | Print | Product List | Glossary On
Versions: 1 2 3 4 5 6 7 8 9 10 11 12 13 14 15 16 17 18 19 20 21 22
000
FTUS43 KAPX 041501 AAA
TAFAPN
TAF AMD
KAPN 041501Z 0415/0512 23004KT P6SM VCSH SCT050 BKN100
      TEMPO 0415/0419 6SM -SHRA BKN050
     FM041900 30009G18KT P6SM BKN050
     FM050100 31006KT P6SM SKC=

USA.gov is the U.S. government's official web portal to all federal, state and local government web resources and services.